createdAt,value
2023-04-08T00:00:54.870Z,49
2023-04-08T00:20:52.708Z,48
2023-04-08T00:40:53.567Z,48
2023-04-08T01:00:53.051Z,48
2023-04-08T01:20:55.501Z,48
2023-04-08T01:40:54.818Z,48
2023-04-08T02:00:53.993Z,49
2023-04-08T02:20:56.659Z,48
2023-04-08T02:40:36.919Z,49
2023-04-08T03:00:35.177Z,49
2023-04-08T03:20:35.877Z,49
2023-04-08T03:40:35.691Z,48
2023-04-08T04:00:51.587Z,49
2023-04-08T04:20:37.378Z,49
2023-04-08T04:40:37.734Z,50
2023-04-08T05:00:55.554Z,53
2023-04-08T05:20:54.129Z,53
2023-04-08T05:40:57.852Z,51
2023-04-08T06:00:53.506Z,52
2023-04-08T06:20:59.942Z,50
2023-04-08T06:40:53.542Z,50
2023-04-08T07:00:53.520Z,50
2023-04-08T07:20:52.426Z,50
2023-04-08T07:40:55.548Z,50
2023-04-08T08:00:53.096Z,49
2023-04-08T08:20:35.442Z,50
2023-04-08T08:40:52.233Z,50
2023-04-08T09:00:55.318Z,49
2023-04-08T09:20:54.852Z,50
2023-04-08T09:40:53.674Z,49
2023-04-08T10:00:53.734Z,49
2023-04-08T10:20:58.724Z,48
2023-04-08T10:40:35.785Z,49
2023-04-08T11:00:53.807Z,49
2023-04-08T11:21:00.616Z,47
2023-04-08T11:40:52.878Z,48
2023-04-08T12:00:53.436Z,47
2023-04-08T12:20:53.878Z,47
2023-04-08T12:40:34.949Z,48
2023-04-08T13:00:44.242Z,48
2023-04-08T13:20:52.604Z,48
2023-04-08T13:40:55.809Z,47
2023-04-08T14:00:53.686Z,47
2023-04-08T14:20:53.211Z,46
2023-04-08T14:40:55.383Z,47
2023-04-08T15:00:52.351Z,47
2023-04-08T15:21:00.616Z,46
2023-04-08T15:40:55.235Z,46
2023-04-08T16:00:59.167Z,46
2023-04-08T16:20:53.507Z,46
2023-04-08T16:40:58.993Z,46
2023-04-08T17:00:52.746Z,47
2023-04-08T17:20:57.572Z,47
2023-04-08T17:40:53.337Z,47
2023-04-08T18:00:56.715Z,46
2023-04-08T18:20:37.539Z,47
2023-04-08T18:40:38.807Z,47
2023-04-08T19:00:35.998Z,47
2023-04-08T19:20:35.079Z,46
2023-04-08T19:40:35.705Z,46
2023-04-08T20:00:37.891Z,47
2023-04-08T20:20:43.715Z,46
2023-04-08T20:40:36.158Z,46
2023-04-08T21:00:35.050Z,47
2023-04-08T21:20:35.433Z,47
2023-04-08T21:40:35.998Z,47
2023-04-08T22:01:04.387Z,46
2023-04-08T22:20:36.802Z,47
2023-04-08T22:40:35.209Z,47
2023-04-08T23:00:35.636Z,48
2023-04-08T23:20:57.934Z,48
2023-04-08T23:40:52.120Z,48
